Time;durP1;ratioP1;P1;durP2;ratioP2;P2;SDS_P1;SDS_P2;PMS_P1;PMS_P2;Temp;Humidity;BMP_temperature;BMP_pressure;BME280_temperature;BME280_humidity;BME280_pressure;Samples;Min_cycle;Max_cycle;Signal;HPM_P1;HPM_P2
2023/06/20 00:00:34;;;;;;;4.35;2.60;;;;;;;;;;506462;28;1472;-80
2023/06/20 00:01:10;;;;;;;2.83;2.55;;;;;;;;;;505020;28;1257;-79
2023/06/20 00:02:03;;;;;;;3.55;2.65;;;;;;;;;;504501;28;1478;-79
2023/06/20 00:02:28;;;;;;;3.67;2.80;;;;;;;;;;503705;28;1113;-80
2023/06/20 00:04:01;;;;;;;3.85;2.63;;;;;;;;;;501088;28;1318;-79
2023/06/20 00:04:17;;;;;;;4.40;2.70;;;;;;;;;;500821;29;1246;-79
2023/06/20 00:04:43;;;;;;;4.60;2.70;;;;;;;;;;498787;29;1291;-80
2023/06/20 00:05:08;;;;;;;3.15;2.67;;;;;;;;;;503283;28;1243;-80
2023/06/20 00:05:27;;;;;;;3.60;2.58;;;;;;;;;;504365;28;1394;-80
2023/06/20 00:05:44;;;;;;;3.50;2.60;;;;;;;;;;503599;28;1371;-80
2023/06/20 00:06:14;;;;;;;4.22;2.65;;;;;;;;;;504108;28;1340;-80
2023/06/20 00:06:44;;;;;;;3.78;2.70;;;;;;;;;;507882;28;1514;-80
2023/06/20 00:07:03;;;;;;;3.63;2.70;;;;;;;;;;506860;28;1162;-80
2023/06/20 00:07:25;;;;;;;3.42;2.60;;;;;;;;;;503668;28;1463;-80
2023/06/20 00:07:46;;;;;;;4.78;2.85;;;;;;;;;;503703;28;1610;-80
2023/06/20 00:08:03;;;;;;;4.40;2.78;;;;;;;;;;503584;28;2005;-80
2023/06/20 00:08:27;;;;;;;3.22;2.65;;;;;;;;;;504948;28;1475;-80
2023/06/20 00:08:46;;;;;;;3.63;2.67;;;;;;;;;;506497;28;1304;-80
2023/06/20 00:09:42;;;;;;;5.32;2.92;;;;;;;;;;507433;28;1162;-79
2023/06/20 00:10:04;;;;;;;4.40;2.70;;;;;;;;;;495728;29;1468;-79
2023/06/20 00:10:52;;;;;;;4.43;2.60;;;;;;;;;;497627;29;1107;-80
2023/06/20 00:11:10;;;;;;;4.10;3.00;;;;;;;;;;495123;29;1196;-80
2023/06/20 00:11:45;;;;;;;3.22;2.90;;;;;;;;;;493524;29;1448;-80
2023/06/20 00:12:01;;;;;;;4.05;3.00;;;;;;;;;;497171;29;1331;-79
2023/06/20 00:12:20;;;;;;;4.32;3.10;;;;;;;;;;496784;29;1333;-81
2023/06/20 00:12:35;;;;;;;5.80;3.05;;;;;;;;;;497300;29;1128;-80
2023/06/20 00:13:13;;;;;;;6.43;2.90;;;;;;;;;;497743;29;1377;-80
2023/06/20 00:13:34;;;;;;;4.03;2.90;;;;;;;;;;500815;29;1157;-79
2023/06/20 00:13:52;;;;;;;3.55;2.80;;;;;;;;;;501276;28;1448;-80
2023/06/20 00:14:12;;;;;;;3.78;2.88;;;;;;;;;;501603;28;1179;-79
2023/06/20 00:14:30;;;;;;;3.83;2.80;;;;;;;;;;500471;29;2108;-79
2023/06/20 00:14:51;;;;;;;3.95;2.80;;;;;;;;;;497968;29;1353;-80
2023/06/20 00:15:07;;;;;;;4.13;2.83;;;;;;;;;;497976;29;1252;-79
2023/06/20 00:15:40;;;;;;;;;;;;;;;;;;;;;
2023/06/20 00:15:58;;;;;;;4.55;2.70;;;;;;;;;;495043;29;1292;-80
2023/06/20 00:16:20;;;;;;;4.95;3.00;;;;;;;;;;496940;29;1129;-80
2023/06/20 00:16:36;;;;;;;4.50;3.10;;;;;;;;;;499206;29;1274;-80
2023/06/20 00:17:13;;;;;;;4.05;3.13;;;;;;;;;;502304;28;1025;-80
2023/06/20 00:17:40;;;;;;;4.85;2.83;;;;;;;;;;495597;29;1018;-80
2023/06/20 00:18:00;;;;;;;4.15;2.90;;;;;;;;;;500981;29;1456;-80
2023/06/20 00:18:25;;;;;;;3.50;2.75;;;;;;;;;;496430;29;1417;-80
2023/06/20 00:18:53;;;;;;;;;;;;;;;;;;;;;
2023/06/20 00:19:13;;;;;;;4.85;2.88;;;;;;;;;;499755;29;1007;-80
2023/06/20 00:19:31;;;;;;;3.53;3.03;;;;;;;;;;497250;29;1172;-80
2023/06/20 00:19:49;;;;;;;4.32;2.95;;;;;;;;;;499663;29;930;-80
2023/06/20 00:21:49;;;;;;;3.45;3.00;;;;;;;;;;496623;29;1032;-81
2023/06/20 00:22:34;;;;;;;4.57;2.80;;;;;;;;;;496869;29;2069;-80
2023/06/20 00:23:31;;;;;;;5.20;3.10;;;;;;;;;;496823;29;2100;-81
2023/06/20 00:23:56;;;;;;;4.03;2.92;;;;;;;;;;493621;29;1400;-81
2023/06/20 00:24:44;;;;;;;5.32;3.38;;;;;;;;;;489158;29;1336;-81
2023/06/20 00:25:13;;;;;;;4.60;3.00;;;;;;;;;;489038;29;1669;-79
2023/06/20 00:25:35;;;;;;;4.70;3.03;;;;;;;;;;488677;29;1114;-81
2023/06/20 00:26:24;;;;;;;4.43;3.10;;;;;;;;;;491063;29;1459;-81
2023/06/20 00:26:43;;;;;;;4.63;3.00;;;;;;;;;;495041;29;1383;-80
2023/06/20 00:27:05;;;;;;;4.10;2.90;;;;;;;;;;491729;29;2213;-81
2023/06/20 00:27:23;;;;;;;4.60;3.03;;;;;;;;;;491664;29;1391;-81
2023/06/20 00:28:02;;;;;;;4.35;3.05;;;;;;;;;;490266;29;1214;-79
2023/06/20 00:28:21;;;;;;;4.13;3.00;;;;;;;;;;489347;29;1371;-81
2023/06/20 00:29:00;;;;;;;4.50;3.15;;;;;;;;;;486749;29;1465;-81
2023/06/20 00:29:19;;;;;;;4.15;3.10;;;;;;;;;;489361;29;1541;-81
2023/06/20 00:30:02;;;;;;;4.72;3.05;;;;;;;;;;485254;29;1634;-80
2023/06/20 00:30:45;;;;;;;4.35;2.97;;;;;;;;;;488719;29;1124;-81
2023/06/20 00:32:21;;;;;;;;;;;;;;;;;;;;;
2023/06/20 00:33:19;;;;;;;4.40;3.20;;;;;;;;;;488504;29;1303;-80
2023/06/20 00:34:06;;;;;;;5.13;3.30;;;;;;;;;;487865;29;1128;-82
2023/06/20 00:34:36;;;;;;;4.63;3.33;;;;;;;;;;487529;29;1431;-80
2023/06/20 00:34:58;;;;;;;4.22;3.10;;;;;;;;;;490391;29;1130;-81
2023/06/20 00:35:17;;;;;;;4.53;3.20;;;;;;;;;;489316;29;1624;-79
2023/06/20 00:35:39;;;;;;;4.83;3.30;;;;;;;;;;491458;29;1524;-80
2023/06/20 00:35:56;;;;;;;5.18;3.30;;;;;;;;;;488107;29;1252;-79
2023/06/20 00:36:29;;;;;;;4.35;3.33;;;;;;;;;;488062;29;1249;-79
2023/06/20 00:36:49;;;;;;;4.20;3.10;;;;;;;;;;486989;29;1245;-80
2023/06/20 00:38:18;;;;;;;;;;;;;;;;;;;;;
2023/06/20 00:38:51;;;;;;;4.75;3.00;;;;;;;;;;491063;29;1080;-80
2023/06/20 00:39:12;;;;;;;4.15;3.20;;;;;;;;;;491953;29;1336;-80
2023/06/20 00:39:37;;;;;;;4.90;3.35;;;;;;;;;;492612;29;1224;-81
2023/06/20 00:39:53;;;;;;;4.70;3.10;;;;;;;;;;490349;29;1087;-81
2023/06/20 00:40:12;;;;;;;4.45;3.25;;;;;;;;;;491983;29;1289;-79
2023/06/20 00:40:28;;;;;;;4.28;3.38;;;;;;;;;;492059;29;1379;-80
2023/06/20 00:41:35;;;;;;;3.60;3.00;;;;;;;;;;490016;29;1852;-80
2023/06/20 00:41:38;;;;;;;4.07;3.25;;;;;;;;;;492252;29;1202;-81
2023/06/20 00:41:51;;;;;;;4.43;3.03;;;;;;;;;;491576;29;1323;-80
2023/06/20 00:42:37;;;;;;;4.97;3.35;;;;;;;;;;491625;29;1195;-80
2023/06/20 00:43:12;;;;;;;5.38;3.38;;;;;;;;;;490076;29;1361;-80
2023/06/20 00:43:36;;;;;;;3.95;3.10;;;;;;;;;;489432;29;1486;-80
2023/06/20 00:43:55;;;;;;;3.50;3.00;;;;;;;;;;488029;29;1212;-80
2023/06/20 00:44:11;;;;;;;3.30;2.97;;;;;;;;;;488986;29;1380;-80
2023/06/20 00:44:44;;;;;;;3.38;3.05;;;;;;;;;;490382;29;1275;-80
2023/06/20 00:45:00;;;;;;;4.97;3.50;;;;;;;;;;490315;29;1318;-81
2023/06/20 00:46:14;;;;;;;4.60;3.47;;;;;;;;;;491374;29;920;-81
2023/06/20 00:47:26;;;;;;;;;;;;;;;;;;;;;
2023/06/20 00:48:07;;;;;;;4.95;3.38;;;;;;;;;;484265;29;1325;-80
2023/06/20 00:48:50;;;;;;;5.25;3.67;;;;;;;;;;490858;29;1272;-80
2023/06/20 00:49:35;;;;;;;5.60;3.50;;;;;;;;;;491989;29;1273;-80
2023/06/20 00:50:07;;;;;;;5.75;3.70;;;;;;;;;;489363;29;1523;-81
2023/06/20 00:51:20;;;;;;;6.75;3.60;;;;;;;;;;489660;29;986;-80
2023/06/20 00:51:54;;;;;;;6.00;3.70;;;;;;;;;;490647;29;1638;-80
2023/06/20 00:52:35;;;;;;;5.75;3.50;;;;;;;;;;492567;29;1556;-80
2023/06/20 00:53:04;;;;;;;5.43;3.50;;;;;;;;;;491954;29;1683;-80
2023/06/20 00:55:24;;;;;;;4.20;3.30;;;;;;;;;;491707;29;967;-80
2023/06/20 00:56:19;;;;;;;5.30;3.40;;;;;;;;;;493701;29;1549;-77
2023/06/20 00:57:13;;;;;;;6.43;4.15;;;;;;;;;;492989;29;1526;-77
2023/06/20 00:58:04;;;;;;;6.25;3.90;;;;;;;;;;490619;29;2294;-80
2023/06/20 00:59:15;;;;;;;9.63;4.72;;;;;;;;;;494187;29;1049;-77
2023/06/20 01:00:32;;;;;;;9.38;5.13;;;;;;;;;;492435;29;1236;-78
2023/06/20 01:02:00;;;;;;;7.05;4.10;;;;;;;;;;494878;29;1231;-81
2023/06/20 01:02:00;;;;;;;6.03;4.40;;;;;;;;;;493984;29;1270;-81
2023/06/20 01:02:36;;;;;;;5.88;4.13;;;;;;;;;;497080;29;1403;-81
2023/06/20 01:03:12;;;;;;;6.15;4.30;;;;;;;;;;497388;29;1203;-81
2023/06/20 01:03:31;;;;;;;4.85;3.53;;;;;;;;;;501408;29;1518;-78
2023/06/20 01:03:59;;;;;;;5.13;3.85;;;;;;;;;;501368;29;1463;-78
2023/06/20 01:04:43;;;;;;;6.63;4.03;;;;;;;;;;498679;29;1347;-80
2023/06/20 01:05:03;;;;;;;4.97;3.80;;;;;;;;;;499098;29;1112;-80
2023/06/20 01:05:50;;;;;;;6.95;4.30;;;;;;;;;;496908;29;1549;-81
2023/06/20 01:06:32;;;;;;;5.57;4.20;;;;;;;;;;497543;29;1389;-80
2023/06/20 01:07:27;;;;;;;5.78;4.10;;;;;;;;;;498962;29;1246;-80
2023/06/20 01:09:55;;;;;;;4.20;3.80;;;;;;;;;;496435;29;1278;-79
2023/06/20 01:17:51;;;;;;;6.20;4.50;;;;;;;;;;499774;29;1253;-80
2023/06/20 01:18:26;;;;;;;4.28;3.83;;;;;;;;;;497161;29;1405;-80
2023/06/20 01:19:15;;;;;;;4.18;3.78;;;;;;;;;;500181;29;1462;-82
2023/06/20 01:20:25;;;;;;;5.13;4.53;;;;;;;;;;498576;29;1145;-81
2023/06/20 01:20:59;;;;;;;4.50;3.83;;;;;;;;;;497764;29;1274;-80
2023/06/20 01:22:38;;;;;;;5.78;4.50;;;;;;;;;;495746;29;1012;-80
2023/06/20 01:23:10;;;;;;;;;;;;;;;;;;;;;
2023/06/20 01:24:04;;;;;;;6.05;4.80;;;;;;;;;;496304;29;1213;-80
2023/06/20 01:24:50;;;;;;;6.57;5.00;;;;;;;;;;499094;29;2155;-80
2023/06/20 01:25:47;;;;;;;5.20;4.50;;;;;;;;;;495443;29;1166;-80
2023/06/20 01:30:11;;;;;;;4.80;4.35;;;;;;;;;;487455;29;1301;-80
2023/06/20 01:33:02;;;;;;;4.50;4.07;;;;;;;;;;489013;29;1038;-81
2023/06/20 01:34:00;;;;;;;4.85;4.20;;;;;;;;;;489893;29;1109;-81
2023/06/20 01:34:59;;;;;;;;;;;;;;;;;;;;;
2023/06/20 01:36:02;;;;;;;;;;;;;;;;;;;;;
2023/06/20 01:36:24;;;;;;;5.10;4.47;;;;;;;;;;485620;30;1102;-81
2023/06/20 01:36:42;;;;;;;6.28;4.57;;;;;;;;;;486122;30;1532;-80
2023/06/20 01:37:17;;;;;;;5.97;4.78;;;;;;;;;;486065;30;1588;-81
2023/06/20 01:37:51;;;;;;;;;;;;;;;;;;;;;
2023/06/20 01:38:50;;;;;;;4.38;3.97;;;;;;;;;;488837;29;1266;-80
2023/06/20 01:39:34;;;;;;;5.13;4.07;;;;;;;;;;483747;30;1366;-80
2023/06/20 01:40:04;;;;;;;5.10;4.18;;;;;;;;;;486953;29;1183;-80
2023/06/20 01:40:42;;;;;;;5.32;4.35;;;;;;;;;;489934;29;997;-80
2023/06/20 01:41:25;;;;;;;5.32;4.70;;;;;;;;;;489876;29;1482;-82
2023/06/20 01:42:25;;;;;;;;;;;;;;;;;;;;;
2023/06/20 01:43:34;;;;;;;7.45;4.70;;;;;;;;;;489102;29;1093;-80
2023/06/20 01:44:46;;;;;;;5.68;4.95;;;;;;;;;;484844;30;1358;-80
2023/06/20 01:44:46;;;;;;;5.15;4.45;;;;;;;;;;483951;30;1163;-80
2023/06/20 01:46:44;;;;;;;5.35;4.80;;;;;;;;;;487658;30;1310;-80
2023/06/20 01:47:10;;;;;;;5.22;4.60;;;;;;;;;;487804;29;1459;-80
2023/06/20 01:48:08;;;;;;;4.43;4.03;;;;;;;;;;490601;29;1212;-80
2023/06/20 01:48:48;;;;;;;5.82;4.40;;;;;;;;;;490644;29;1194;-81
2023/06/20 01:49:26;;;;;;;5.05;4.50;;;;;;;;;;488984;29;1131;-81
2023/06/20 01:50:18;;;;;;;6.72;4.47;;;;;;;;;;492016;29;1203;-80
2023/06/20 01:50:55;;;;;;;6.00;4.60;;;;;;;;;;491312;29;1841;-81
2023/06/20 01:51:46;;;;;;;4.85;3.95;;;;;;;;;;490301;29;1381;-81
2023/06/20 01:52:44;;;;;;;4.50;4.10;;;;;;;;;;490196;29;1707;-80
2023/06/20 01:53:13;;;;;;;4.82;4.18;;;;;;;;;;490857;29;1412;-80
2023/06/20 01:53:50;;;;;;;6.30;4.97;;;;;;;;;;490436;29;1498;-81
2023/06/20 01:54:30;;;;;;;6.35;4.70;;;;;;;;;;488792;29;1240;-81
2023/06/20 01:55:13;;;;;;;6.45;5.20;;;;;;;;;;489782;29;1399;-80
2023/06/20 01:55:43;;;;;;;5.63;4.65;;;;;;;;;;488030;29;1247;-81
2023/06/20 01:56:15;;;;;;;6.22;4.80;;;;;;;;;;487532;29;1527;-81
2023/06/20 01:56:59;;;;;;;6.75;4.60;;;;;;;;;;488941;29;1153;-80
2023/06/20 01:57:23;;;;;;;6.82;4.90;;;;;;;;;;487091;29;1469;-81
2023/06/20 01:58:44;;;;;;;6.38;4.80;;;;;;;;;;487238;30;1234;-81
2023/06/20 01:59:12;;;;;;;6.32;4.88;;;;;;;;;;484434;30;1254;-81
2023/06/20 01:59:50;;;;;;;6.95;4.68;;;;;;;;;;482046;30;2118;-81
2023/06/20 02:00:12;;;;;;;6.93;4.90;;;;;;;;;;484166;30;1268;-80
2023/06/20 02:00:57;;;;;;;6.93;5.05;;;;;;;;;;482599;30;1306;-81
2023/06/20 02:01:26;;;;;;;6.10;5.45;;;;;;;;;;482051;30;1425;-81
2023/06/20 02:01:51;;;;;;;7.28;5.15;;;;;;;;;;486693;30;938;-81
2023/06/20 02:02:08;;;;;;;7.63;4.88;;;;;;;;;;486726;30;1269;-80
2023/06/20 02:03:17;;;;;;;5.75;5.03;;;;;;;;;;485562;30;1153;-81
2023/06/20 02:04:40;;;;;;;6.38;4.90;;;;;;;;;;483433;30;1147;-79
2023/06/20 02:05:16;;;;;;;7.30;5.40;;;;;;;;;;484694;30;1572;-82
2023/06/20 02:05:39;;;;;;;5.40;4.80;;;;;;;;;;484375;30;1797;-82
2023/06/20 02:06:24;;;;;;;6.13;4.90;;;;;;;;;;483632;30;2144;-79
2023/06/20 02:06:48;;;;;;;6.05;4.70;;;;;;;;;;486136;30;1324;-80
2023/06/20 02:07:05;;;;;;;5.32;4.72;;;;;;;;;;494144;29;1410;-80
2023/06/20 02:07:30;;;;;;;6.43;4.70;;;;;;;;;;494399;29;1134;-81
2023/06/20 02:07:58;;;;;;;6.18;4.63;;;;;;;;;;495191;29;1626;-83
2023/06/20 02:08:15;;;;;;;6.00;4.75;;;;;;;;;;494017;29;1098;-81
2023/06/20 02:08:37;;;;;;;5.20;4.22;;;;;;;;;;495508;29;1270;-81
2023/06/20 02:09:07;;;;;;;5.65;4.57;;;;;;;;;;494674;29;1621;-81
2023/06/20 02:09:54;;;;;;;5.88;4.88;;;;;;;;;;490189;29;1359;-82
2023/06/20 02:10:24;;;;;;;5.65;4.38;;;;;;;;;;485727;29;1408;-82
2023/06/20 02:10:41;;;;;;;6.30;4.82;;;;;;;;;;490394;29;1208;-81
2023/06/20 02:11:07;;;;;;;5.30;4.50;;;;;;;;;;491130;29;1277;-81
2023/06/20 02:11:52;;;;;;;4.95;4.15;;;;;;;;;;495323;29;1367;-81
2023/06/20 02:12:09;;;;;;;7.13;5.20;;;;;;;;;;494135;29;1364;-82
2023/06/20 02:12:29;;;;;;;6.03;4.50;;;;;;;;;;493541;29;1564;-81
2023/06/20 02:12:55;;;;;;;5.00;4.47;;;;;;;;;;493220;29;1271;-82
2023/06/20 02:13:27;;;;;;;5.57;4.22;;;;;;;;;;495176;29;1550;-82
2023/06/20 02:13:50;;;;;;;5.32;4.40;;;;;;;;;;495713;29;1443;-82
2023/06/20 02:14:16;;;;;;;4.97;4.47;;;;;;;;;;497178;29;1334;-81
2023/06/20 02:15:36;;;;;;;4.78;4.10;;;;;;;;;;496139;29;1399;-82
2023/06/20 02:16:29;;;;;;;6.80;4.90;;;;;;;;;;494310;29;1273;-82
2023/06/20 02:17:20;;;;;;;4.75;3.97;;;;;;;;;;494284;29;1303;-81
2023/06/20 02:17:41;;;;;;;4.68;4.18;;;;;;;;;;490039;29;1570;-83
2023/06/20 02:18:49;;;;;;;4.30;3.90;;;;;;;;;;490649;29;1348;-81
2023/06/20 02:18:57;;;;;;;4.57;4.10;;;;;;;;;;492688;29;2143;-81
2023/06/20 02:19:08;;;;;;;4.20;3.80;;;;;;;;;;491074;29;1604;-81
2023/06/20 02:19:32;;;;;;;5.18;3.90;;;;;;;;;;490463;29;1511;-80
2023/06/20 02:19:54;;;;;;;6.20;4.53;;;;;;;;;;492151;29;1220;-80
2023/06/20 02:20:13;;;;;;;4.80;4.25;;;;;;;;;;489811;29;1208;-80
2023/06/20 02:20:49;;;;;;;4.85;4.15;;;;;;;;;;490862;29;1058;-80
2023/06/20 02:21:19;;;;;;;5.63;4.35;;;;;;;;;;488263;29;1300;-80
2023/06/20 02:21:45;;;;;;;4.28;3.88;;;;;;;;;;493297;29;1646;-80
2023/06/20 02:22:13;;;;;;;5.05;3.80;;;;;;;;;;494465;29;1590;-80
2023/06/20 02:22:48;;;;;;;4.10;3.70;;;;;;;;;;495276;29;1224;-80
2023/06/20 02:23:31;;;;;;;4.93;4.13;;;;;;;;;;496884;29;1182;-80
2023/06/20 02:23:50;;;;;;;5.22;3.95;;;;;;;;;;489177;29;1435;-79
2023/06/20 02:24:29;;;;;;;;;;;;;;;;;;;;;
2023/06/20 02:24:57;;;;;;;4.20;3.80;;;;;;;;;;495182;29;1312;-80
2023/06/20 02:25:20;;;;;;;5.28;3.90;;;;;;;;;;495615;29;1189;-80
2023/06/20 02:25:42;;;;;;;4.00;3.53;;;;;;;;;;498892;29;1306;-80
2023/06/20 02:26:09;;;;;;;5.07;4.00;;;;;;;;;;499901;29;1500;-80
2023/06/20 02:26:39;;;;;;;5.82;4.03;;;;;;;;;;502199;29;1410;-81
2023/06/20 02:27:01;;;;;;;4.97;4.00;;;;;;;;;;497875;29;1315;-80
2023/06/20 02:27:21;;;;;;;5.25;4.22;;;;;;;;;;498488;29;2117;-80
2023/06/20 02:27:59;;;;;;;5.10;4.25;;;;;;;;;;499537;29;1200;-80
2023/06/20 02:28:29;;;;;;;6.75;4.20;;;;;;;;;;502195;29;1361;-81
2023/06/20 02:29:00;;;;;;;4.95;4.00;;;;;;;;;;502867;29;1399;-81
2023/06/20 02:29:28;;;;;;;5.50;4.10;;;;;;;;;;499315;29;1213;-81
2023/06/20 02:30:00;;;;;;;4.97;4.30;;;;;;;;;;497279;29;1326;-81
2023/06/20 02:30:28;;;;;;;5.35;4.28;;;;;;;;;;498962;29;1256;-80
2023/06/20 02:31:05;;;;;;;5.22;4.50;;;;;;;;;;501933;29;1030;-81
2023/06/20 02:31:33;;;;;;;6.45;4.57;;;;;;;;;;499609;29;1290;-81
2023/06/20 02:31:51;;;;;;;5.10;4.60;;;;;;;;;;497453;29;1381;-80
2023/06/20 02:32:09;;;;;;;5.57;4.45;;;;;;;;;;497964;29;1022;-78
2023/06/20 02:32:42;;;;;;;;;;;;;;;;;;;;;
2023/06/20 02:33:56;;;;;;;;;;;;;;;;;;;;;
2023/06/20 02:35:01;;;;;;;4.70;3.85;;;;;;;;;;492856;29;1182;-79
2023/06/20 02:36:08;;;;;;;5.35;4.30;;;;;;;;;;493427;29;1455;-81
2023/06/20 02:36:57;;;;;;;4.40;3.92;;;;;;;;;;497559;29;1311;-79
2023/06/20 02:37:43;;;;;;;4.80;4.10;;;;;;;;;;497525;29;1352;-79
2023/06/20 02:38:32;;;;;;;5.38;4.47;;;;;;;;;;500360;29;1285;-80
2023/06/20 02:38:49;;;;;;;6.60;4.47;;;;;;;;;;499624;29;964;-79
2023/06/20 02:39:34;;;;;;;6.53;4.50;;;;;;;;;;498896;29;1346;-79
2023/06/20 02:40:11;;;;;;;6.30;5.00;;;;;;;;;;498805;29;1253;-79
2023/06/20 02:41:20;;;;;;;;;;;;;;;;;;;;;
2023/06/20 02:41:41;;;;;;;6.22;4.88;;;;;;;;;;496862;29;1278;-79
2023/06/20 02:42:02;;;;;;;6.47;5.03;;;;;;;;;;500527;29;1311;-79
2023/06/20 02:42:27;;;;;;;6.93;5.00;;;;;;;;;;499566;29;2118;-79
2023/06/20 02:43:00;;;;;;;5.85;4.75;;;;;;;;;;499995;29;2100;-79
2023/06/20 02:44:10;;;;;;;5.03;4.53;;;;;;;;;;499736;29;2103;-79
2023/06/20 02:44:26;;;;;;;5.53;4.40;;;;;;;;;;497804;29;1157;-79
2023/06/20 02:44:45;;;;;;;5.82;4.40;;;;;;;;;;500022;28;1091;-79
2023/06/20 02:45:01;;;;;;;5.25;4.53;;;;;;;;;;503345;28;1292;-80
2023/06/20 02:45:21;;;;;;;5.60;4.40;;;;;;;;;;501645;28;1448;-79
2023/06/20 02:45:39;;;;;;;5.75;4.32;;;;;;;;;;501260;29;1928;-79
2023/06/20 02:46:19;;;;;;;5.70;4.40;;;;;;;;;;503161;28;1318;-79
2023/06/20 02:47:39;;;;;;;;;;;;;;;;;;;;;
2023/06/20 02:48:18;;;;;;;6.07;4.68;;;;;;;;;;498215;29;1037;-79
2023/06/20 02:49:09;;;;;;;4.93;4.50;;;;;;;;;;499711;29;1049;-80
2023/06/20 02:50:02;;;;;;;5.72;4.90;;;;;;;;;;498509;29;1501;-79
2023/06/20 02:50:41;;;;;;;6.07;5.13;;;;;;;;;;500538;29;1306;-79
2023/06/20 02:51:23;;;;;;;6.10;4.65;;;;;;;;;;499549;29;1165;-79
2023/06/20 02:53:36;;;;;;;7.10;5.20;;;;;;;;;;490321;29;1315;-79
2023/06/20 02:54:12;;;;;;;5.57;4.47;;;;;;;;;;483372;29;1791;-79
2023/06/20 02:54:49;;;;;;;4.43;4.03;;;;;;;;;;489372;29;1276;-79
2023/06/20 02:55:44;;;;;;;4.70;4.30;;;;;;;;;;489222;29;1352;-79
2023/06/20 02:56:18;;;;;;;6.40;4.53;;;;;;;;;;489752;29;1332;-79
2023/06/20 02:56:47;;;;;;;5.32;4.20;;;;;;;;;;492484;29;1169;-79
2023/06/20 02:57:27;;;;;;;4.70;4.20;;;;;;;;;;491186;29;1222;-79
2023/06/20 02:57:57;;;;;;;5.07;4.27;;;;;;;;;;491137;29;1473;-79
2023/06/20 02:58:19;;;;;;;5.15;4.00;;;;;;;;;;489126;29;1470;-79
2023/06/20 02:58:41;;;;;;;5.53;4.13;;;;;;;;;;488851;29;1027;-79
2023/06/20 02:59:01;;;;;;;4.53;3.90;;;;;;;;;;489229;29;1419;-79
2023/06/20 02:59:25;;;;;;;5.65;4.07;;;;;;;;;;489226;29;1012;-79
2023/06/20 02:59:44;;;;;;;5.85;4.40;;;;;;;;;;490211;29;1522;-78
2023/06/20 03:00:13;;;;;;;5.97;4.35;;;;;;;;;;489563;29;1475;-79
2023/06/20 03:01:32;;;;;;;5.47;4.20;;;;;;;;;;488685;29;1337;-79
2023/06/20 03:01:36;;;;;;;6.03;4.32;;;;;;;;;;483111;30;1131;-79
2023/06/20 03:02:01;;;;;;;5.38;4.47;;;;;;;;;;490030;29;1338;-79
2023/06/20 03:03:06;;;;;;;5.60;4.22;;;;;;;;;;492768;29;1333;-79
2023/06/20 03:03:32;;;;;;;5.10;4.40;;;;;;;;;;495703;29;1468;-79
2023/06/20 03:03:59;;;;;;;4.72;4.15;;;;;;;;;;494648;29;1417;-79
2023/06/20 03:04:34;;;;;;;5.88;4.25;;;;;;;;;;491064;29;1454;-80
2023/06/20 03:05:02;;;;;;;5.20;4.22;;;;;;;;;;492500;29;1261;-79
2023/06/20 03:05:30;;;;;;;4.97;4.20;;;;;;;;;;493748;29;1509;-78
2023/06/20 03:05:56;;;;;;;5.97;4.45;;;;;;;;;;493794;29;1414;-80
2023/06/20 03:06:15;;;;;;;5.82;4.55;;;;;;;;;;493739;29;1352;-79
2023/06/20 03:06:55;;;;;;;5.78;4.63;;;;;;;;;;493022;29;941;-79
2023/06/20 03:07:14;;;;;;;6.43;5.13;;;;;;;;;;492665;29;1383;-78
2023/06/20 03:07:34;;;;;;;5.47;4.68;;;;;;;;;;489636;29;1296;-79
2023/06/20 03:07:54;;;;;;;5.28;4.63;;;;;;;;;;490643;29;935;-79
2023/06/20 03:08:15;;;;;;;5.10;4.60;;;;;;;;;;489052;29;1911;-79
2023/06/20 03:08:49;;;;;;;5.28;4.68;;;;;;;;;;488061;29;1103;-79
2023/06/20 03:09:13;;;;;;;5.78;4.50;;;;;;;;;;490833;29;1487;-79
2023/06/20 03:09:46;;;;;;;6.60;4.80;;;;;;;;;;490142;29;1437;-79
2023/06/20 03:10:37;;;;;;;5.47;4.80;;;;;;;;;;488785;29;1278;-79
2023/06/20 03:10:59;;;;;;;5.88;4.80;;;;;;;;;;490548;29;1562;-78
2023/06/20 03:11:53;;;;;;;5.57;4.85;;;;;;;;;;491760;29;1479;-79
2023/06/20 03:12:39;;;;;;;5.55;4.70;;;;;;;;;;491099;29;1134;-79
2023/06/20 03:13:21;;;;;;;6.57;5.13;;;;;;;;;;488825;29;1314;-79
2023/06/20 03:13:39;;;;;;;5.25;4.75;;;;;;;;;;493563;29;1145;-78
2023/06/20 03:13:56;;;;;;;5.93;4.82;;;;;;;;;;493122;29;1406;-78
2023/06/20 03:14:38;;;;;;;5.68;4.75;;;;;;;;;;494439;29;1185;-79
2023/06/20 03:14:56;;;;;;;6.40;5.00;;;;;;;;;;493167;29;1225;-78
2023/06/20 03:15:14;;;;;;;7.75;5.25;;;;;;;;;;492165;29;1475;-78
2023/06/20 03:15:36;;;;;;;5.78;4.72;;;;;;;;;;494325;29;1442;-79
2023/06/20 03:15:58;;;;;;;5.57;4.70;;;;;;;;;;494631;29;1318;-78
2023/06/20 03:16:14;;;;;;;6.60;4.80;;;;;;;;;;494387;29;1317;-78
2023/06/20 03:16:51;;;;;;;6.78;4.97;;;;;;;;;;494855;29;1311;-77
2023/06/20 03:17:25;;;;;;;5.00;4.50;;;;;;;;;;494767;29;1214;-78
2023/06/20 03:17:54;;;;;;;;;;;;;;;;;;;;;
2023/06/20 03:18:12;;;;;;;5.72;4.68;;;;;;;;;;496050;29;1301;-79
2023/06/20 03:18:29;;;;;;;5.75;4.75;;;;;;;;;;495119;29;1569;-78
2023/06/20 03:19:00;;;;;;;7.38;4.95;;;;;;;;;;495061;29;1386;-78
2023/06/20 03:19:36;;;;;;;5.82;4.68;;;;;;;;;;495711;29;1184;-79
2023/06/20 03:21:40;;;;;;;9.88;5.70;;;;;;;;;;494307;29;1126;-79
2023/06/20 03:23:18;;;;;;;9.23;5.40;;;;;;;;;;491728;29;1081;-79
2023/06/20 03:24:23;;;;;;;12.23;6.38;;;;;;;;;;492072;29;1163;-80
2023/06/20 03:25:02;;;;;;;35.42;11.23;;;;;;;;;;492071;29;1183;-80
2023/06/20 03:25:18;;;;;;;22.05;9.43;;;;;;;;;;493902;29;1000;-80
2023/06/20 03:25:37;;;;;;;17.17;8.23;;;;;;;;;;494587;29;1547;-82
2023/06/20 03:26:02;;;;;;;12.50;6.82;;;;;;;;;;496027;29;1179;-80
2023/06/20 03:26:18;;;;;;;11.38;6.28;;;;;;;;;;494565;29;1492;-80
2023/06/20 03:26:37;;;;;;;13.98;6.90;;;;;;;;;;493930;29;1157;-80
2023/06/20 03:27:15;;;;;;;11.93;6.30;;;;;;;;;;493806;29;1088;-79
2023/06/20 03:27:40;;;;;;;14.57;6.90;;;;;;;;;;488719;29;1438;-80
2023/06/20 03:27:56;;;;;;;14.82;6.60;;;;;;;;;;491369;29;1081;-80
2023/06/20 03:28:14;;;;;;;12.82;6.35;;;;;;;;;;492822;29;1956;-79
2023/06/20 03:28:48;;;;;;;15.35;6.88;;;;;;;;;;493790;29;1297;-80
2023/06/20 03:29:15;;;;;;;14.63;7.03;;;;;;;;;;494819;29;1383;-81
2023/06/20 03:29:33;;;;;;;11.27;6.63;;;;;;;;;;495125;29;1402;-80
2023/06/20 03:29:49;;;;;;;15.20;7.45;;;;;;;;;;496646;29;1338;-80
2023/06/20 03:30:08;;;;;;;24.30;8.90;;;;;;;;;;494292;29;1311;-80
2023/06/20 03:30:24;;;;;;;20.27;8.80;;;;;;;;;;492871;29;1420;-80
2023/06/20 03:30:46;;;;;;;18.48;8.25;;;;;;;;;;495698;29;1160;-81
2023/06/20 03:31:55;;;;;;;23.52;8.07;;;;;;;;;;491096;29;1011;-81
2023/06/20 03:32:11;;;;;;;18.83;7.90;;;;;;;;;;491757;29;1462;-80
2023/06/20 03:32:30;;;;;;;13.93;7.50;;;;;;;;;;488429;29;1252;-80
2023/06/20 03:32:54;;;;;;;13.57;7.43;;;;;;;;;;487078;29;1171;-80
2023/06/20 03:33:16;;;;;;;13.55;7.43;;;;;;;;;;488051;29;1554;-80
2023/06/20 03:33:32;;;;;;;13.70;7.47;;;;;;;;;;488258;29;1242;-80
2023/06/20 03:33:47;;;;;;;11.77;7.20;;;;;;;;;;495018;29;1360;-80
2023/06/20 03:34:12;;;;;;;11.60;7.13;;;;;;;;;;495501;29;1190;-80
2023/06/20 03:34:31;;;;;;;9.82;6.85;;;;;;;;;;500342;29;1461;-80
2023/06/20 03:34:47;;;;;;;9.88;6.93;;;;;;;;;;500108;28;1226;-79
2023/06/20 03:35:06;;;;;;;11.65;7.18;;;;;;;;;;502708;28;1599;-80
2023/06/20 03:35:25;;;;;;;11.63;7.00;;;;;;;;;;500785;28;1361;-80
2023/06/20 03:36:01;;;;;;;9.43;6.20;;;;;;;;;;501044;28;1124;-79
2023/06/20 03:36:19;;;;;;;9.40;6.32;;;;;;;;;;499699;29;1123;-75
2023/06/20 03:37:01;;;;;;;8.68;6.57;;;;;;;;;;500229;29;1318;-78
2023/06/20 03:37:20;;;;;;;8.00;6.00;;;;;;;;;;501338;29;1345;-80
2023/06/20 03:37:38;;;;;;;8.73;6.18;;;;;;;;;;501234;29;1126;-81
2023/06/20 03:37:54;;;;;;;8.93;6.32;;;;;;;;;;499930;29;1368;-79
2023/06/20 03:38:51;;;;;;;8.83;6.40;;;;;;;;;;497607;29;1327;-80
2023/06/20 03:39:22;;;;;;;9.55;6.40;;;;;;;;;;495338;29;1156;-80
2023/06/20 03:39:47;;;;;;;9.38;6.43;;;;;;;;;;498202;29;1966;-80
2023/06/20 03:40:15;;;;;;;9.60;6.70;;;;;;;;;;502580;28;1514;-80
2023/06/20 03:40:31;;;;;;;8.23;6.20;;;;;;;;;;503814;28;1139;-79
2023/06/20 03:40:59;;;;;;;6.68;5.93;;;;;;;;;;504102;28;1311;-80
2023/06/20 03:41:27;;;;;;;7.63;6.35;;;;;;;;;;501691;29;1805;-79
2023/06/20 03:41:57;;;;;;;7.50;6.13;;;;;;;;;;501386;28;1194;-78
2023/06/20 03:42:13;;;;;;;9.93;6.13;;;;;;;;;;501856;29;1095;-78
2023/06/20 03:42:32;;;;;;;9.73;5.80;;;;;;;;;;498912;29;1524;-79
2023/06/20 03:42:51;;;;;;;8.02;5.85;;;;;;;;;;498128;29;1408;-79
2023/06/20 03:43:13;;;;;;;7.43;5.60;;;;;;;;;;499384;29;1191;-78
2023/06/20 03:43:47;;;;;;;8.27;5.60;;;;;;;;;;498707;29;1336;-79
2023/06/20 03:44:07;;;;;;;8.48;5.35;;;;;;;;;;499898;29;1421;-79
2023/06/20 03:44:49;;;;;;;8.50;5.40;;;;;;;;;;501969;29;1070;-79
2023/06/20 03:45:09;;;;;;;9.35;6.20;;;;;;;;;;500766;29;1273;-78
2023/06/20 03:45:56;;;;;;;10.27;6.10;;;;;;;;;;501571;28;1327;-78
2023/06/20 03:46:20;;;;;;;9.13;6.20;;;;;;;;;;501642;28;1372;-78
2023/06/20 03:46:54;;;;;;;8.82;5.88;;;;;;;;;;501114;29;1484;-79
2023/06/20 03:47:10;;;;;;;8.02;5.95;;;;;;;;;;500642;29;1507;-79
2023/06/20 03:47:35;;;;;;;8.63;5.90;;;;;;;;;;501474;28;1166;-79
2023/06/20 03:47:54;;;;;;;9.23;6.13;;;;;;;;;;500264;29;1130;-79
2023/06/20 03:48:13;;;;;;;8.65;6.28;;;;;;;;;;500610;28;2000;-80
2023/06/20 03:48:51;;;;;;;9.25;6.60;;;;;;;;;;503655;28;1427;-80
2023/06/20 03:49:21;;;;;;;7.93;6.13;;;;;;;;;;503391;28;1369;-80
2023/06/20 03:49:37;;;;;;;8.07;6.43;;;;;;;;;;500909;29;1500;-79
2023/06/20 03:50:05;;;;;;;7.73;6.17;;;;;;;;;;499279;29;1360;-79
2023/06/20 03:50:21;;;;;;;7.47;5.97;;;;;;;;;;497983;29;1714;-80
2023/06/20 03:50:37;;;;;;;7.20;6.05;;;;;;;;;;497394;29;1092;-79
2023/06/20 03:50:57;;;;;;;6.82;5.88;;;;;;;;;;496092;29;1302;-79